createdAt,value
2023-02-21T14:25:28.754Z,88.19
2023-02-21T14:29:34.155Z,89.57
2023-02-21T14:33:36.768Z,91.05
2023-02-21T14:38:02.473Z,91.60
2023-02-21T14:42:33.335Z,91.10
2023-02-21T14:47:12.022Z,90.72
2023-02-21T14:51:51.372Z,90.52
2023-02-21T14:56:26.626Z,89.69
2023-02-21T15:00:58.820Z,85.43
2023-02-21T15:05:28.061Z,83.11
2023-02-21T15:09:29.852Z,81.90
2023-02-21T15:13:33.771Z,80.92
2023-02-21T15:17:35.523Z,80.76
2023-02-21T15:21:37.419Z,80.87
2023-02-21T15:25:39.524Z,80.38
2023-02-21T15:29:41.525Z,80.02
2023-02-21T15:33:44.413Z,79.71
2023-02-21T15:37:47.172Z,78.18
2023-02-21T15:41:51.047Z,75.96
2023-02-21T15:45:54.447Z,74.37
2023-02-21T15:50:08.772Z,73.55
2023-02-21T15:54:21.758Z,74.32
2023-02-21T15:58:27.710Z,74.92
2023-02-21T16:02:32.221Z,73.89
2023-02-21T16:06:34.203Z,72.15
2023-02-21T16:10:36.016Z,70.88
2023-02-21T16:14:45.775Z,71.62
2023-02-21T16:18:55.494Z,71.46
2023-02-21T16:23:47.803Z,70.82
2023-02-21T16:27:56.125Z,72.18
2023-02-21T16:31:58.124Z,72.04
2023-02-21T16:36:03.511Z,72.47
2023-02-21T16:40:13.543Z,71.80
2023-02-21T16:44:15.357Z,71.97
2023-02-21T16:48:28.825Z,72.03
2023-02-21T16:52:30.599Z,71.72
2023-02-21T16:56:32.551Z,71.62
2023-02-21T17:00:35.046Z,71.50
2023-02-21T17:04:36.916Z,71.27
2023-02-21T17:08:38.713Z,71.07
2023-02-21T17:12:40.492Z,71.27
2023-02-21T17:16:46.149Z,70.67
2023-02-21T17:20:47.916Z,70.59
2023-02-21T17:24:49.658Z,70.46
2023-02-21T17:28:52.311Z,70.54
2023-02-21T17:32:54.231Z,70.15
2023-02-21T17:36:56.044Z,69.87
2023-02-21T17:40:58.286Z,69.91
2023-02-21T17:45:02.569Z,69.83
2023-02-21T17:49:04.494Z,69.24
2023-02-21T17:53:06.277Z,69.37
2023-02-21T17:57:09.329Z,69.34
2023-02-21T18:01:15.598Z,69.13
2023-02-21T18:05:18.617Z,69.02
2023-02-21T18:09:20.617Z,69.07
2023-02-21T18:13:23.419Z,68.88
2023-02-21T18:17:25.149Z,68.86
2023-02-21T18:21:27.597Z,68.73
2023-02-21T18:25:29.516Z,68.61
2023-02-21T18:29:32.495Z,68.32
2023-02-21T18:33:34.342Z,68.46
2023-02-21T18:37:36.132Z,68.41
2023-02-21T18:41:37.854Z,68.31
2023-02-21T18:45:40.584Z,68.22
2023-02-21T18:49:44.085Z,68.13
2023-02-21T18:53:48.450Z,67.68
2023-02-21T18:57:51.465Z,68.02
2023-02-21T19:01:55.201Z,67.95
2023-02-21T19:05:56.944Z,67.61
2023-02-21T19:09:58.680Z,67.64
2023-02-21T19:14:00.447Z,67.56
2023-02-21T19:18:02.235Z,67.27
2023-02-21T19:22:05.441Z,67.23
2023-02-21T19:26:08.219Z,67.35
2023-02-21T19:30:11.744Z,67.27
2023-02-21T19:34:14.411Z,67.25
2023-02-21T19:38:16.513Z,66.73
2023-02-21T19:42:18.239Z,67.00
2023-02-21T19:46:25.875Z,67.09
2023-02-21T19:50:27.574Z,67.21
2023-02-21T19:54:30.962Z,66.95
2023-02-21T19:58:32.721Z,66.76
2023-02-21T20:02:34.621Z,66.70
2023-02-21T20:06:37.623Z,66.69
2023-02-21T20:10:39.328Z,66.29
2023-02-21T20:14:46.052Z,66.43
2023-02-21T20:18:51.896Z,66.47
2023-02-21T20:22:54.068Z,66.34
2023-02-21T20:26:55.817Z,66.37
2023-02-21T20:30:57.562Z,66.29
2023-02-21T20:34:59.612Z,66.06
2023-02-21T20:39:01.523Z,65.79
2023-02-21T20:43:03.425Z,66.01
2023-02-21T20:47:06.003Z,65.96
2023-02-21T20:51:07.696Z,66.17
2023-02-21T20:55:09.912Z,65.98
2023-02-21T20:59:31.449Z,65.88
2023-02-21T21:03:35.997Z,65.75
2023-02-21T21:07:37.870Z,65.68
2023-02-21T21:11:39.601Z,65.54
2023-02-21T21:15:41.746Z,65.67
2023-02-21T21:19:46.590Z,65.73
2023-02-21T21:23:48.805Z,65.92
2023-02-21T21:27:50.489Z,65.57
2023-02-21T21:31:54.596Z,65.76
2023-02-21T21:35:58.909Z,65.70
2023-02-21T21:40:16.666Z,65.62
2023-02-21T21:44:23.373Z,65.45
2023-02-21T21:48:25.133Z,65.74
2023-02-21T21:52:26.958Z,65.62
2023-02-21T21:56:28.704Z,65.83
2023-02-21T22:00:30.851Z,65.65
2023-02-21T22:04:32.658Z,65.53
2023-02-21T22:08:34.367Z,65.52
2023-02-21T22:12:36.051Z,65.68
2023-02-21T22:16:39.351Z,65.68
2023-02-21T22:20:42.951Z,65.79
2023-02-21T22:24:44.845Z,65.65
2023-02-21T22:28:46.829Z,65.86
2023-02-21T22:32:49.551Z,65.97
2023-02-21T22:36:54.112Z,65.85
2023-02-21T22:41:00.026Z,65.91
2023-02-21T22:45:01.889Z,66.13
2023-02-21T22:49:03.848Z,65.87
2023-02-21T22:53:09.075Z,66.03
2023-02-21T22:57:10.770Z,65.95
2023-02-21T23:01:12.541Z,65.87
2023-02-21T23:05:20.522Z,66.00
2023-02-21T23:09:23.779Z,65.55
2023-02-21T23:13:25.654Z,66.00
2023-02-21T23:17:27.405Z,66.39
2023-02-21T23:21:30.555Z,65.82
2023-02-21T23:25:37.302Z,65.68
2023-02-21T23:29:39.531Z,65.97
2023-02-21T23:33:41.613Z,66.07
2023-02-21T23:37:47.062Z,65.79
2023-02-21T23:41:49.413Z,66.04
2023-02-21T23:45:52.648Z,66.25
2023-02-21T23:49:59.480Z,66.01
2023-02-21T23:54:01.166Z,65.93
2023-02-21T23:58:09.010Z,65.95
